Terminal Aerodrome Forecast
Issued by NWS Sioux Falls, SD

Home | Current Version | Previous Version | Text Only | Print | Product List | Glossary On
Versions: 1 2 3 4 5 6 7 8 9 10 11 12 13 14 15
000
FTUS43 KFSD 280523
TAFHON
TAF
KHON 280523Z 2806/2906 14007KT P6SM BKN025
      TEMPO 2806/2808 BKN035
     FM281500 15014G21KT P6SM SCT200
     FM281900 16018G25KT P6SM SCT150
     FM290400 17012KT P6SM SCT120=

USA.gov is the U.S. government's official web portal to all federal, state and local government web resources and services.